South Amherst, Ohio
Current Conditions -  °F | °C
As of 10:17 AM on Thursday 23 Oct 2014 (Local Time) from KLPR Reporting Station
Broken Clouds Broken Clouds  
Wind Chill: 52°   Ceiling: 1400
Heat Index: 52°   Visibility: 10mi
Dew Point: 45°   Wind: 7mph
Humidity: 77%   Direction: 330°NNW
Pressure: 30.23"   Gusts: NA
Location:  41.3705°N, 82.2583°W
Report Text: KLPR 231417Z AUTO 33006KT 10SM BKN014 11/07 A3023 RMK AO2 T01110072 TSNO $
Loading
Personal Weather Stations






























Interactive Weather Map
Tropical Storm Tracking
New forecast layout! Learn more

10-Day Weather Forecast

Advertisements
Track Severe Weather on mobile